<?xml version="1.0" encoding="UTF-8" standalone="no" ?>
<gpx xmlns="http://www.topografix.com/GPX/1/1" xmlns:xsi="http://www.w3.org/2001/XMLSchema-instance" xsi:schemaLocation="http://www.topografix.com/GPX/1/1 http://www.topografix.com/GPX/1/1/gpx.xsd" version="1.1" creator="VisuGPX - https://www.visugpx.com">
  <metadata>
    <name>luzech 6 descentes</name>
    <desc><![CDATA[parcours typé enduro avec de belles descentes]]></desc>
  </metadata>
  <trk>
    <name><![CDATA[2014-04-01-08-18-57]]></name>
    <trkseg>
      <trkpt lat="44.43523" lon="1.29645">
        <ele>213.829</ele>
        <time>2014-04-01T10:09:11Z</time>
      </trkpt>
      <trkpt lat="44.43524" lon="1.29658">
        <ele>208.339</ele>
        <time>2014-04-01T10:09:16Z</time>
      </trkpt>
      <trkpt lat="44.43514" lon="1.29672">
        <ele>208.06</ele>
        <time>2014-04-01T10:09:25Z</time>
      </trkpt>
      <trkpt lat="44.43501" lon="1.29683">
        <ele>207.95</ele>
        <time>2014-04-01T10:09:33Z</time>
      </trkpt>
      <trkpt lat="44.43489" lon="1.29694">
        <ele>210.071</ele>
        <time>2014-04-01T10:09:42Z</time>
      </trkpt>
      <trkpt lat="44.43481" lon="1.29701">
        <ele>211.75</ele>
        <time>2014-04-01T10:09:49Z</time>
      </trkpt>
      <trkpt lat="44.43467" lon="1.29714">
        <ele>210.5</ele>
        <time>2014-04-01T10:09:58Z</time>
      </trkpt>
      <trkpt lat="44.43453" lon="1.29729">
        <ele>211.93</ele>
        <time>2014-04-01T10:10:07Z</time>
      </trkpt>
      <trkpt lat="44.43445" lon="1.29746">
        <ele>212.75</ele>
        <time>2014-04-01T10:10:15Z</time>
      </trkpt>
      <trkpt lat="44.43441" lon="1.29756">
        <ele>213.61</ele>
        <time>2014-04-01T10:10:20Z</time>
      </trkpt>
      <trkpt lat="44.43445" lon="1.29762">
        <ele>214.96</ele>
        <time>2014-04-01T10:10:25Z</time>
      </trkpt>
      <trkpt lat="44.43448" lon="1.29761">
        <ele>214.87</ele>
        <time>2014-04-01T10:10:27Z</time>
      </trkpt>
      <trkpt lat="44.43466" lon="1.2975">
        <ele>219.4</ele>
        <time>2014-04-01T10:10:40Z</time>
      </trkpt>
      <trkpt lat="44.43481" lon="1.29744">
        <ele>222.349</ele>
        <time>2014-04-01T10:10:49Z</time>
      </trkpt>
      <trkpt lat="44.43486" lon="1.29743">
        <ele>222.809</ele>
        <time>2014-04-01T10:10:53Z</time>
      </trkpt>
      <trkpt lat="44.43497" lon="1.29738">
        <ele>224.969</ele>
        <time>2014-04-01T10:11:01Z</time>
      </trkpt>
      <trkpt lat="44.43508" lon="1.29733">
        <ele>226.739</ele>
        <time>2014-04-01T10:11:09Z</time>
      </trkpt>
      <trkpt lat="44.4351" lon="1.29733">
        <ele>227.099</ele>
        <time>2014-04-01T10:11:11Z</time>
      </trkpt>
      <trkpt lat="44.43511" lon="1.29739">
        <ele>228.009</ele>
        <time>2014-04-01T10:11:16Z</time>
      </trkpt>
      <trkpt lat="44.43499" lon="1.29749">
        <ele>229.189</ele>
        <time>2014-04-01T10:11:24Z</time>
      </trkpt>
      <trkpt lat="44.43489" lon="1.29759">
        <ele>229.32</ele>
        <time>2014-04-01T10:11:31Z</time>
      </trkpt>
      <trkpt lat="44.43475" lon="1.29775">
        <ele>230.049</ele>
        <time>2014-04-01T10:11:40Z</time>
      </trkpt>
      <trkpt lat="44.43467" lon="1.29788">
        <ele>231.06</ele>
        <time>2014-04-01T10:11:46Z</time>
      </trkpt>
      <trkpt lat="44.43457" lon="1.29805">
        <ele>232.78</ele>
        <time>2014-04-01T10:11:54Z</time>
      </trkpt>
      <trkpt lat="44.43444" lon="1.29833">
        <ele>231.43</ele>
        <time>2014-04-01T10:12:06Z</time>
      </trkpt>
      <trkpt lat="44.43436" lon="1.29853">
        <ele>231.17</ele>
        <time>2014-04-01T10:12:14Z</time>
      </trkpt>
      <trkpt lat="44.4343" lon="1.29869">
        <ele>231.479</ele>
        <time>2014-04-01T10:12:21Z</time>
      </trkpt>
      <trkpt lat="44.43426" lon="1.29885">
        <ele>231.079</ele>
        <time>2014-04-01T10:12:27Z</time>
      </trkpt>
      <trkpt lat="44.43421" lon="1.29904">
        <ele>231.279</ele>
        <time>2014-04-01T10:12:34Z</time>
      </trkpt>
      <trkpt lat="44.43417" lon="1.29922">
        <ele>231.399</ele>
        <time>2014-04-01T10:12:41Z</time>
      </trkpt>
      <trkpt lat="44.43413" lon="1.29947">
        <ele>231.664</ele>
        <time>2014-04-01T10:12:50Z</time>
      </trkpt>
      <trkpt lat="44.4341" lon="1.29966">
        <ele>232.219</ele>
        <time>2014-04-01T10:12:57Z</time>
      </trkpt>
      <trkpt lat="44.43406" lon="1.29983">
        <ele>232.577</ele>
        <time>2014-04-01T10:13:03Z</time>
      </trkpt>
      <trkpt lat="44.43399" lon="1.30004">
        <ele>233.536</ele>
        <time>2014-04-01T10:13:11Z</time>
      </trkpt>
      <trkpt lat="44.43394" lon="1.30027">
        <ele>234.405</ele>
        <time>2014-04-01T10:13:19Z</time>
      </trkpt>
      <trkpt lat="44.43394" lon="1.3005">
        <ele>235.181</ele>
        <time>2014-04-01T10:13:27Z</time>
      </trkpt>
      <trkpt lat="44.43399" lon="1.30072">
        <ele>236.703</ele>
        <time>2014-04-01T10:13:35Z</time>
      </trkpt>
      <trkpt lat="44.43409" lon="1.30094">
        <ele>238.734</ele>
        <time>2014-04-01T10:13:44Z</time>
      </trkpt>
      <trkpt lat="44.43422" lon="1.30107">
        <ele>243.099</ele>
        <time>2014-04-01T10:13:52Z</time>
      </trkpt>
      <trkpt lat="44.43443" lon="1.30121">
        <ele>248.054</ele>
        <time>2014-04-01T10:14:03Z</time>
      </trkpt>
      <trkpt lat="44.43455" lon="1.3013">
        <ele>250.436</ele>
        <time>2014-04-01T10:14:09Z</time>
      </trkpt>
      <trkpt lat="44.43472" lon="1.3014">
        <ele>251.744</ele>
        <time>2014-04-01T10:14:17Z</time>
      </trkpt>
      <trkpt lat="44.43489" lon="1.30154">
        <ele>251.598</ele>
        <time>2014-04-01T10:14:26Z</time>
      </trkpt>
      <trkpt lat="44.43495" lon="1.30171">
        <ele>251.543</ele>
        <time>2014-04-01T10:14:33Z</time>
      </trkpt>
      <trkpt lat="44.43491" lon="1.30187">
        <ele>251.12</ele>
        <time>2014-04-01T10:14:39Z</time>
      </trkpt>
      <trkpt lat="44.43481" lon="1.30199">
        <ele>251.675</ele>
        <time>2014-04-01T10:14:46Z</time>
      </trkpt>
      <trkpt lat="44.43466" lon="1.30204">
        <ele>253.195</ele>
        <time>2014-04-01T10:14:54Z</time>
      </trkpt>
      <trkpt lat="44.43444" lon="1.30209">
        <ele>254.907</ele>
        <time>2014-04-01T10:15:06Z</time>
      </trkpt>
      <trkpt lat="44.43429" lon="1.30223">
        <ele>256.281</ele>
        <time>2014-04-01T10:15:15Z</time>
      </trkpt>
      <trkpt lat="44.4342" lon="1.3024">
        <ele>258.158</ele>
        <time>2014-04-01T10:15:23Z</time>
      </trkpt>
      <trkpt lat="44.43412" lon="1.30257">
        <ele>260.024</ele>
        <time>2014-04-01T10:15:31Z</time>
      </trkpt>
      <trkpt lat="44.43402" lon="1.30277">
        <ele>261.12</ele>
        <time>2014-04-01T10:15:40Z</time>
      </trkpt>
      <trkpt lat="44.4339" lon="1.303">
        <ele>261.848</ele>
        <time>2014-04-01T10:15:50Z</time>
      </trkpt>
      <trkpt lat="44.43381" lon="1.30321">
        <ele>262.368</ele>
        <time>2014-04-01T10:15:59Z</time>
      </trkpt>
      <trkpt lat="44.4337" lon="1.30345">
        <ele>262.921</ele>
        <time>2014-04-01T10:16:09Z</time>
      </trkpt>
      <trkpt lat="44.43362" lon="1.3037">
        <ele>263.57</ele>
        <time>2014-04-01T10:16:19Z</time>
      </trkpt>
      <trkpt lat="44.43355" lon="1.30396">
        <ele>264.137</ele>
        <time>2014-04-01T10:16:29Z</time>
      </trkpt>
      <trkpt lat="44.43351" lon="1.30419">
        <ele>265</ele>
        <time>2014-04-01T10:16:38Z</time>
      </trkpt>
      <trkpt lat="44.43343" lon="1.30449">
        <ele>265.52</ele>
        <time>2014-04-01T10:16:49Z</time>
      </trkpt>
      <trkpt lat="44.43337" lon="1.30473">
        <ele>266.863</ele>
        <time>2014-04-01T10:16:58Z</time>
      </trkpt>
      <trkpt lat="44.43331" lon="1.30496">
        <ele>268.093</ele>
        <time>2014-04-01T10:17:07Z</time>
      </trkpt>
      <trkpt lat="44.43327" lon="1.30509">
        <ele>269.271</ele>
        <time>2014-04-01T10:17:13Z</time>
      </trkpt>
      <trkpt lat="44.43328" lon="1.30521">
        <ele>271.126</ele>
        <time>2014-04-01T10:17:18Z</time>
      </trkpt>
      <trkpt lat="44.43328" lon="1.30537">
        <ele>272.756</ele>
        <time>2014-04-01T10:17:25Z</time>
      </trkpt>
      <trkpt lat="44.43329" lon="1.30549">
        <ele>274.816</ele>
        <time>2014-04-01T10:17:31Z</time>
      </trkpt>
      <trkpt lat="44.43327" lon="1.30566">
        <ele>277.019</ele>
        <time>2014-04-01T10:17:39Z</time>
      </trkpt>
      <trkpt lat="44.43321" lon="1.30582">
        <ele>279.561</ele>
        <time>2014-04-01T10:17:48Z</time>
      </trkpt>
      <trkpt lat="44.43314" lon="1.30595">
        <ele>281.797</ele>
        <time>2014-04-01T10:17:56Z</time>
      </trkpt>
      <trkpt lat="44.43307" lon="1.3061">
        <ele>283.141</ele>
        <time>2014-04-01T10:18:05Z</time>
      </trkpt>
      <trkpt lat="44.43301" lon="1.30622">
        <ele>285.878</ele>
        <time>2014-04-01T10:18:13Z</time>
      </trkpt>
      <trkpt lat="44.43307" lon="1.3063">
        <ele>286.537</ele>
        <time>2014-04-01T10:18:19Z</time>
      </trkpt>
      <trkpt lat="44.43322" lon="1.30635">
        <ele>287.354</ele>
        <time>2014-04-01T10:18:28Z</time>
      </trkpt>
      <trkpt lat="44.43335" lon="1.30639">
        <ele>288.212</ele>
        <time>2014-04-01T10:18:36Z</time>
      </trkpt>
      <trkpt lat="44.43355" lon="1.30646">
        <ele>289.279</ele>
        <time>2014-04-01T10:18:49Z</time>
      </trkpt>
      <trkpt lat="44.43367" lon="1.30651">
        <ele>289.757</ele>
        <time>2014-04-01T10:18:57Z</time>
      </trkpt>
      <trkpt lat="44.43378" lon="1.30654">
        <ele>290.177</ele>
        <time>2014-04-01T10:19:04Z</time>
      </trkpt>
      <trkpt lat="44.43391" lon="1.30652">
        <ele>291.139</ele>
        <time>2014-04-01T10:19:12Z</time>
      </trkpt>
      <trkpt lat="44.43401" lon="1.30641">
        <ele>291.448</ele>
        <time>2014-04-01T10:19:18Z</time>
      </trkpt>
      <trkpt lat="44.43415" lon="1.30623">
        <ele>291.594</ele>
        <time>2014-04-01T10:19:26Z</time>
      </trkpt>
      <trkpt lat="44.43418" lon="1.30619">
        <ele>291.344</ele>
        <time>2014-04-01T10:19:28Z</time>
      </trkpt>
      <trkpt lat="44.4342" lon="1.30618">
        <ele>291.157</ele>
        <time>2014-04-01T10:19:31Z</time>
      </trkpt>
    </trkseg>
  </trk>
</gpx>